sensor_id;sensor_type;location;lat;lon;timestamp;P1;durP1;ratioP1;P2;durP2;ratioP2
42704;SDS011;28342;42.594;23.414;2022-09-13T00:00:28;7.95;;;5.82;;
42704;SDS011;28342;42.594;23.414;2022-09-13T00:02:53;6.68;;;6.07;;
42704;SDS011;28342;42.594;23.414;2022-09-13T00:05:19;10.05;;;6.25;;
42704;SDS011;28342;42.594;23.414;2022-09-13T00:07:45;5.57;;;4.88;;
42704;SDS011;28342;42.594;23.414;2022-09-13T00:10:10;7.18;;;5.18;;
42704;SDS011;28342;42.594;23.414;2022-09-13T00:12:36;6.68;;;5.55;;
42704;SDS011;28342;42.594;23.414;2022-09-13T00:15:02;6.35;;;5.45;;
42704;SDS011;28342;42.594;23.414;2022-09-13T00:17:27;8.38;;;5.90;;
42704;SDS011;28342;42.594;23.414;2022-09-13T00:19:52;6.47;;;5.15;;
42704;SDS011;28342;42.594;23.414;2022-09-13T00:22:18;9.85;;;5.75;;
42704;SDS011;28342;42.594;23.414;2022-09-13T00:24:43;11.90;;;5.55;;
42704;SDS011;28342;42.594;23.414;2022-09-13T00:27:09;9.38;;;6.43;;
42704;SDS011;28342;42.594;23.414;2022-09-13T00:29:35;6.68;;;6.03;;
42704;SDS011;28342;42.594;23.414;2022-09-13T00:32:00;8.07;;;4.97;;
42704;SDS011;28342;42.594;23.414;2022-09-13T00:34:26;7.07;;;5.00;;
42704;SDS011;28342;42.594;23.414;2022-09-13T00:36:52;5.25;;;4.43;;
42704;SDS011;28342;42.594;23.414;2022-09-13T00:39:18;5.97;;;4.93;;
42704;SDS011;28342;42.594;23.414;2022-09-13T00:41:44;6.75;;;4.97;;
42704;SDS011;28342;42.594;23.414;2022-09-13T00:47:13;6.68;;;5.07;;
42704;SDS011;28342;42.594;23.414;2022-09-13T00:49:42;5.45;;;4.93;;
42704;SDS011;28342;42.594;23.414;2022-09-13T00:52:13;9.73;;;5.20;;
42704;SDS011;28342;42.594;23.414;2022-09-13T00:54:55;7.07;;;5.25;;
42704;SDS011;28342;42.594;23.414;2022-09-13T00:57:26;5.78;;;5.20;;
42704;SDS011;28342;42.594;23.414;2022-09-13T00:59:56;7.90;;;4.68;;
42704;SDS011;28342;42.594;23.414;2022-09-13T01:02:32;6.10;;;5.50;;
42704;SDS011;28342;42.594;23.414;2022-09-13T01:04:58;8.02;;;5.82;;
42704;SDS011;28342;42.594;23.414;2022-09-13T01:07:23;5.63;;;5.13;;
42704;SDS011;28342;42.594;23.414;2022-09-13T01:09:49;10.38;;;5.47;;
42704;SDS011;28342;42.594;23.414;2022-09-13T01:14:58;6.53;;;5.38;;
42704;SDS011;28342;42.594;23.414;2022-09-13T01:17:26;6.80;;;5.68;;
42704;SDS011;28342;42.594;23.414;2022-09-13T01:19:53;7.85;;;5.60;;
42704;SDS011;28342;42.594;23.414;2022-09-13T01:25:10;10.50;;;6.15;;
42704;SDS011;28342;42.594;23.414;2022-09-13T01:28:02;5.30;;;4.80;;
42704;SDS011;28342;42.594;23.414;2022-09-13T01:30:38;12.27;;;5.72;;
42704;SDS011;28342;42.594;23.414;2022-09-13T01:33:20;7.38;;;5.20;;
42704;SDS011;28342;42.594;23.414;2022-09-13T01:36:17;6.43;;;4.90;;
42704;SDS011;28342;42.594;23.414;2022-09-13T01:39:04;6.57;;;5.40;;
42704;SDS011;28342;42.594;23.414;2022-09-13T01:44:16;5.63;;;5.10;;
42704;SDS011;28342;42.594;23.414;2022-09-13T01:46:56;11.00;;;5.43;;
42704;SDS011;28342;42.594;23.414;2022-09-13T01:57:32;21.73;;;6.60;;
42704;SDS011;28342;42.594;23.414;2022-09-13T02:00:11;6.75;;;5.07;;
42704;SDS011;28342;42.594;23.414;2022-09-13T02:05:30;10.07;;;5.90;;
42704;SDS011;28342;42.594;23.414;2022-09-13T02:08:03;7.13;;;5.78;;
42704;SDS011;28342;42.594;23.414;2022-09-13T02:10:46;8.23;;;5.40;;
42704;SDS011;28342;42.594;23.414;2022-09-13T02:13:17;9.40;;;5.40;;
42704;SDS011;28342;42.594;23.414;2022-09-13T02:15:50;8.40;;;5.45;;
42704;SDS011;28342;42.594;23.414;2022-09-13T02:18:23;6.65;;;5.13;;
42704;SDS011;28342;42.594;23.414;2022-09-13T02:20:59;6.82;;;5.57;;
42704;SDS011;28342;42.594;23.414;2022-09-13T02:23:33;6.97;;;4.93;;
42704;SDS011;28342;42.594;23.414;2022-09-13T02:26:07;8.40;;;5.93;;
42704;SDS011;28342;42.594;23.414;2022-09-13T02:28:37;5.72;;;5.20;;
42704;SDS011;28342;42.594;23.414;2022-09-13T02:31:08;7.20;;;5.53;;
42704;SDS011;28342;42.594;23.414;2022-09-13T02:33:36;9.27;;;5.35;;
42704;SDS011;28342;42.594;23.414;2022-09-13T02:38:45;6.22;;;5.63;;
42704;SDS011;28342;42.594;23.414;2022-09-13T02:43:47;7.65;;;6.30;;
42704;SDS011;28342;42.594;23.414;2022-09-13T02:46:33;8.48;;;5.80;;
42704;SDS011;28342;42.594;23.414;2022-09-13T02:49:29;12.20;;;6.47;;
42704;SDS011;28342;42.594;23.414;2022-09-13T03:00:58;13.30;;;6.45;;
42704;SDS011;28342;42.594;23.414;2022-09-13T03:03:23;11.75;;;5.45;;
42704;SDS011;28342;42.594;23.414;2022-09-13T03:05:50;7.22;;;5.95;;
42704;SDS011;28342;42.594;23.414;2022-09-13T03:08:17;7.10;;;6.07;;
42704;SDS011;28342;42.594;23.414;2022-09-13T03:10:53;7.38;;;5.50;;
42704;SDS011;28342;42.594;23.414;2022-09-13T03:13:33;8.75;;;6.20;;
42704;SDS011;28342;42.594;23.414;2022-09-13T03:19:08;7.03;;;5.00;;
42704;SDS011;28342;42.594;23.414;2022-09-13T03:35:09;7.00;;;6.15;;
42704;SDS011;28342;42.594;23.414;2022-09-13T03:37:46;8.27;;;5.47;;
42704;SDS011;28342;42.594;23.414;2022-09-13T03:40:16;9.55;;;6.15;;
42704;SDS011;28342;42.594;23.414;2022-09-13T03:45:59;9.20;;;5.50;;
42704;SDS011;28342;42.594;23.414;2022-09-13T03:48:29;8.20;;;6.25;;
42704;SDS011;28342;42.594;23.414;2022-09-13T03:50:57;11.95;;;6.15;;
42704;SDS011;28342;42.594;23.414;2022-09-13T03:53:23;7.88;;;6.13;;
42704;SDS011;28342;42.594;23.414;2022-09-13T03:55:51;11.73;;;6.30;;
42704;SDS011;28342;42.594;23.414;2022-09-13T03:58:17;9.23;;;5.45;;
42704;SDS011;28342;42.594;23.414;2022-09-13T04:00:45;7.90;;;6.03;;
42704;SDS011;28342;42.594;23.414;2022-09-13T04:03:10;7.47;;;5.82;;
42704;SDS011;28342;42.594;23.414;2022-09-13T04:05:37;9.38;;;6.32;;
42704;SDS011;28342;42.594;23.414;2022-09-13T04:08:03;8.90;;;6.50;;
42704;SDS011;28342;42.594;23.414;2022-09-13T04:10:30;8.48;;;5.80;;
42704;SDS011;28342;42.594;23.414;2022-09-13T04:12:56;10.13;;;5.97;;
42704;SDS011;28342;42.594;23.414;2022-09-13T04:15:23;7.68;;;6.50;;
42704;SDS011;28342;42.594;23.414;2022-09-13T04:17:48;16.80;;;6.40;;
42704;SDS011;28342;42.594;23.414;2022-09-13T04:20:16;8.82;;;7.28;;
42704;SDS011;28342;42.594;23.414;2022-09-13T04:22:42;8.82;;;7.00;;
42704;SDS011;28342;42.594;23.414;2022-09-13T04:25:07;7.20;;;6.20;;
42704;SDS011;28342;42.594;23.414;2022-09-13T04:27:33;9.75;;;7.15;;
42704;SDS011;28342;42.594;23.414;2022-09-13T04:30:00;10.02;;;6.97;;
42704;SDS011;28342;42.594;23.414;2022-09-13T04:32:26;7.13;;;6.43;;
42704;SDS011;28342;42.594;23.414;2022-09-13T04:34:51;8.80;;;6.30;;
42704;SDS011;28342;42.594;23.414;2022-09-13T04:37:17;12.32;;;7.40;;
42704;SDS011;28342;42.594;23.414;2022-09-13T04:39:45;7.35;;;6.63;;
42704;SDS011;28342;42.594;23.414;2022-09-13T04:42:10;10.68;;;7.05;;
42704;SDS011;28342;42.594;23.414;2022-09-13T04:44:36;10.40;;;7.00;;
42704;SDS011;28342;42.594;23.414;2022-09-13T04:47:02;13.60;;;6.47;;
42704;SDS011;28342;42.594;23.414;2022-09-13T04:49:32;8.32;;;7.25;;
42704;SDS011;28342;42.594;23.414;2022-09-13T04:51:57;11.85;;;7.30;;
42704;SDS011;28342;42.594;23.414;2022-09-13T04:54:23;16.48;;;8.02;;
42704;SDS011;28342;42.594;23.414;2022-09-13T04:56:48;10.55;;;7.78;;
42704;SDS011;28342;42.594;23.414;2022-09-13T04:59:14;9.30;;;6.72;;
42704;SDS011;28342;42.594;23.414;2022-09-13T05:01:43;11.23;;;6.97;;
42704;SDS011;28342;42.594;23.414;2022-09-13T05:04:08;10.02;;;6.90;;
42704;SDS011;28342;42.594;23.414;2022-09-13T05:06:34;8.88;;;6.75;;
42704;SDS011;28342;42.594;23.414;2022-09-13T05:09:00;9.50;;;6.97;;
42704;SDS011;28342;42.594;23.414;2022-09-13T05:11:26;10.88;;;6.50;;
42704;SDS011;28342;42.594;23.414;2022-09-13T05:13:57;11.23;;;6.85;;
42704;SDS011;28342;42.594;23.414;2022-09-13T05:16:24;13.50;;;7.68;;
42704;SDS011;28342;42.594;23.414;2022-09-13T05:18:51;8.25;;;6.45;;
42704;SDS011;28342;42.594;23.414;2022-09-13T05:21:19;8.25;;;6.80;;
42704;SDS011;28342;42.594;23.414;2022-09-13T05:23:47;10.30;;;6.75;;
42704;SDS011;28342;42.594;23.414;2022-09-13T05:26:13;13.97;;;7.13;;
42704;SDS011;28342;42.594;23.414;2022-09-13T05:28:39;8.25;;;6.70;;
42704;SDS011;28342;42.594;23.414;2022-09-13T05:31:27;8.35;;;6.53;;
42704;SDS011;28342;42.594;23.414;2022-09-13T05:33:56;8.35;;;6.53;;
42704;SDS011;28342;42.594;23.414;2022-09-13T05:36:27;8.50;;;6.50;;
42704;SDS011;28342;42.594;23.414;2022-09-13T05:38:55;8.15;;;5.95;;
42704;SDS011;28342;42.594;23.414;2022-09-13T05:41:21;6.10;;;5.40;;
42704;SDS011;28342;42.594;23.414;2022-09-13T05:43:46;7.55;;;6.53;;
42704;SDS011;28342;42.594;23.414;2022-09-13T05:46:13;9.07;;;6.50;;
42704;SDS011;28342;42.594;23.414;2022-09-13T05:48:39;10.30;;;6.53;;
42704;SDS011;28342;42.594;23.414;2022-09-13T05:51:09;8.25;;;5.80;;
42704;SDS011;28342;42.594;23.414;2022-09-13T05:53:36;16.35;;;5.80;;
42704;SDS011;28342;42.594;23.414;2022-09-13T05:56:09;6.50;;;5.55;;
42704;SDS011;28342;42.594;23.414;2022-09-13T05:58:40;9.90;;;5.13;;
42704;SDS011;28342;42.594;23.414;2022-09-13T06:01:07;6.40;;;4.78;;
42704;SDS011;28342;42.594;23.414;2022-09-13T06:03:33;10.90;;;5.10;;
42704;SDS011;28342;42.594;23.414;2022-09-13T06:06:00;6.18;;;5.00;;
42704;SDS011;28342;42.594;23.414;2022-09-13T06:08:33;5.85;;;4.90;;
42704;SDS011;28342;42.594;23.414;2022-09-13T06:11:01;11.27;;;5.05;;
42704;SDS011;28342;42.594;23.414;2022-09-13T06:13:28;6.85;;;5.05;;
42704;SDS011;28342;42.594;23.414;2022-09-13T06:15:54;7.68;;;4.97;;
42704;SDS011;28342;42.594;23.414;2022-09-13T06:18:21;12.50;;;5.38;;
42704;SDS011;28342;42.594;23.414;2022-09-13T06:20:48;9.65;;;4.20;;
42704;SDS011;28342;42.594;23.414;2022-09-13T06:23:14;8.77;;;3.70;;
42704;SDS011;28342;42.594;23.414;2022-09-13T06:25:40;5.63;;;3.55;;
42704;SDS011;28342;42.594;23.414;2022-09-13T06:28:06;9.00;;;4.13;;
42704;SDS011;28342;42.594;23.414;2022-09-13T06:30:32;5.30;;;3.67;;
42704;SDS011;28342;42.594;23.414;2022-09-13T06:32:58;4.53;;;3.33;;
42704;SDS011;28342;42.594;23.414;2022-09-13T06:35:23;6.60;;;3.67;;
42704;SDS011;28342;42.594;23.414;2022-09-13T06:37:49;4.40;;;3.13;;
42704;SDS011;28342;42.594;23.414;2022-09-13T06:40:15;4.55;;;3.40;;
42704;SDS011;28342;42.594;23.414;2022-09-13T06:42:41;9.40;;;3.85;;
42704;SDS011;28342;42.594;23.414;2022-09-13T06:45:07;6.78;;;3.08;;
42704;SDS011;28342;42.594;23.414;2022-09-13T06:47:32;7.75;;;3.70;;
42704;SDS011;28342;42.594;23.414;2022-09-13T06:49:58;6.50;;;3.33;;
42704;SDS011;28342;42.594;23.414;2022-09-13T06:52:24;7.70;;;3.60;;
42704;SDS011;28342;42.594;23.414;2022-09-13T06:54:50;7.03;;;3.53;;
42704;SDS011;28342;42.594;23.414;2022-09-13T06:57:16;3.22;;;2.75;;
42704;SDS011;28342;42.594;23.414;2022-09-13T06:59:41;6.68;;;3.58;;
42704;SDS011;28342;42.594;23.414;2022-09-13T07:02:14;6.35;;;3.75;;
42704;SDS011;28342;42.594;23.414;2022-09-13T07:04:39;3.20;;;2.90;;
42704;SDS011;28342;42.594;23.414;2022-09-13T07:07:05;3.85;;;3.10;;
42704;SDS011;28342;42.594;23.414;2022-09-13T07:09:30;6.85;;;3.47;;
42704;SDS011;28342;42.594;23.414;2022-09-13T07:11:56;5.97;;;3.40;;
42704;SDS011;28342;42.594;23.414;2022-09-13T07:14:22;5.95;;;2.80;;
42704;SDS011;28342;42.594;23.414;2022-09-13T07:16:54;4.85;;;2.97;;
42704;SDS011;28342;42.594;23.414;2022-09-13T07:19:20;5.28;;;3.03;;
42704;SDS011;28342;42.594;23.414;2022-09-13T07:21:48;2.83;;;2.58;;
42704;SDS011;28342;42.594;23.414;2022-09-13T07:24:15;4.85;;;2.95;;
42704;SDS011;28342;42.594;23.414;2022-09-13T07:26:41;5.28;;;3.17;;
42704;SDS011;28342;42.594;23.414;2022-09-13T07:29:08;6.68;;;3.20;;
42704;SDS011;28342;42.594;23.414;2022-09-13T07:31:39;4.53;;;3.28;;
42704;SDS011;28342;42.594;23.414;2022-09-13T07:34:09;5.97;;;3.10;;
42704;SDS011;28342;42.594;23.414;2022-09-13T07:36:37;10.07;;;3.10;;
42704;SDS011;28342;42.594;23.414;2022-09-13T07:39:03;5.43;;;2.90;;
42704;SDS011;28342;42.594;23.414;2022-09-13T07:41:29;8.20;;;3.10;;
42704;SDS011;28342;42.594;23.414;2022-09-13T07:43:57;6.60;;;2.78;;
42704;SDS011;28342;42.594;23.414;2022-09-13T07:46:25;7.05;;;2.90;;
42704;SDS011;28342;42.594;23.414;2022-09-13T07:48:53;2.50;;;2.28;;
42704;SDS011;28342;42.594;23.414;2022-09-13T07:51:22;3.38;;;2.38;;
42704;SDS011;28342;42.594;23.414;2022-09-13T07:53:50;3.20;;;2.67;;
42704;SDS011;28342;42.594;23.414;2022-09-13T07:56:19;3.60;;;2.40;;
42704;SDS011;28342;42.594;23.414;2022-09-13T07:58:47;4.68;;;2.63;;
42704;SDS011;28342;42.594;23.414;2022-09-13T08:01:14;6.35;;;2.53;;
42704;SDS011;28342;42.594;23.414;2022-09-13T08:03:42;6.07;;;2.40;;
42704;SDS011;28342;42.594;23.414;2022-09-13T08:06:08;7.43;;;2.75;;
42704;SDS011;28342;42.594;23.414;2022-09-13T08:08:34;4.63;;;2.35;;
42704;SDS011;28342;42.594;23.414;2022-09-13T08:11:01;3.30;;;2.30;;
42704;SDS011;28342;42.594;23.414;2022-09-13T08:13:28;3.53;;;2.13;;
42704;SDS011;28342;42.594;23.414;2022-09-13T08:15:59;2.42;;;2.10;;
42704;SDS011;28342;42.594;23.414;2022-09-13T08:18:25;2.40;;;2.00;;
42704;SDS011;28342;42.594;23.414;2022-09-13T08:20:51;5.40;;;2.72;;
42704;SDS011;28342;42.594;23.414;2022-09-13T08:23:20;2.40;;;2.20;;
42704;SDS011;28342;42.594;23.414;2022-09-13T08:25:48;4.65;;;2.55;;
42704;SDS011;28342;42.594;23.414;2022-09-13T08:28:15;12.70;;;2.53;;
42704;SDS011;28342;42.594;23.414;2022-09-13T08:30:41;2.65;;;2.05;;
42704;SDS011;28342;42.594;23.414;2022-09-13T08:33:08;6.75;;;2.22;;
42704;SDS011;28342;42.594;23.414;2022-09-13T08:35:34;5.68;;;2.45;;
42704;SDS011;28342;42.594;23.414;2022-09-13T08:38:00;3.20;;;2.25;;
42704;SDS011;28342;42.594;23.414;2022-09-13T08:40:43;5.15;;;2.05;;
42704;SDS011;28342;42.594;23.414;2022-09-13T08:43:22;3.10;;;2.00;;
42704;SDS011;28342;42.594;23.414;2022-09-13T08:46:04;2.70;;;2.15;;
42704;SDS011;28342;42.594;23.414;2022-09-13T08:48:37;4.15;;;2.35;;
42704;SDS011;28342;42.594;23.414;2022-09-13T08:51:08;4.53;;;2.08;;
42704;SDS011;28342;42.594;23.414;2022-09-13T08:53:42;6.20;;;2.15;;
42704;SDS011;28342;42.594;23.414;2022-09-13T08:56:12;2.40;;;2.15;;
42704;SDS011;28342;42.594;23.414;2022-09-13T09:04:36;2.40;;;1.90;;
42704;SDS011;28342;42.594;23.414;2022-09-13T09:07:16;4.13;;;1.58;;
42704;SDS011;28342;42.594;23.414;2022-09-13T09:09:45;3.47;;;1.70;;
42704;SDS011;28342;42.594;23.414;2022-09-13T09:15:16;3.17;;;1.90;;
42704;SDS011;28342;42.594;23.414;2022-09-13T09:17:49;2.50;;;1.58;;
42704;SDS011;28342;42.594;23.414;2022-09-13T09:22:49;3.80;;;1.88;;
42704;SDS011;28342;42.594;23.414;2022-09-13T09:25:16;1.73;;;1.48;;
42704;SDS011;28342;42.594;23.414;2022-09-13T09:27:42;3.58;;;2.25;;
42704;SDS011;28342;42.594;23.414;2022-09-13T09:30:13;3.58;;;2.00;;
42704;SDS011;28342;42.594;23.414;2022-09-13T09:35:52;3.83;;;3.00;;
42704;SDS011;28342;42.594;23.414;2022-09-13T09:38:32;3.65;;;1.90;;
42704;SDS011;28342;42.594;23.414;2022-09-13T09:43:50;3.85;;;1.83;;
42704;SDS011;28342;42.594;23.414;2022-09-13T09:46:36;1.88;;;1.73;;
42704;SDS011;28342;42.594;23.414;2022-09-13T09:49:18;2.45;;;1.75;;
42704;SDS011;28342;42.594;23.414;2022-09-13T09:52:06;4.78;;;2.10;;
42704;SDS011;28342;42.594;23.414;2022-09-13T09:54:35;2.53;;;1.50;;
42704;SDS011;28342;42.594;23.414;2022-09-13T09:57:03;2.05;;;1.70;;
42704;SDS011;28342;42.594;23.414;2022-09-13T09:59:31;3.60;;;2.15;;
42704;SDS011;28342;42.594;23.414;2022-09-13T10:02:01;4.80;;;2.00;;
42704;SDS011;28342;42.594;23.414;2022-09-13T10:04:38;1.60;;;1.50;;
42704;SDS011;28342;42.594;23.414;2022-09-13T10:07:19;6.70;;;1.95;;
42704;SDS011;28342;42.594;23.414;2022-09-13T10:09:57;6.13;;;1.58;;
42704;SDS011;28342;42.594;23.414;2022-09-13T10:12:28;3.97;;;1.70;;
42704;SDS011;28342;42.594;23.414;2022-09-13T10:15:05;2.88;;;1.50;;
42704;SDS011;28342;42.594;23.414;2022-09-13T10:17:41;8.85;;;1.92;;
42704;SDS011;28342;42.594;23.414;2022-09-13T10:22:39;2.90;;;1.40;;
42704;SDS011;28342;42.594;23.414;2022-09-13T10:25:24;3.45;;;2.10;;
42704;SDS011;28342;42.594;23.414;2022-09-13T10:27:54;3.28;;;1.80;;
42704;SDS011;28342;42.594;23.414;2022-09-13T10:30:41;5.40;;;1.80;;
42704;SDS011;28342;42.594;23.414;2022-09-13T10:36:02;4.10;;;1.60;;
42704;SDS011;28342;42.594;23.414;2022-09-13T10:38:33;2.30;;;1.50;;
42704;SDS011;28342;42.594;23.414;2022-09-13T10:41:02;1.73;;;1.40;;
42704;SDS011;28342;42.594;23.414;2022-09-13T10:43:32;2.78;;;1.60;;
42704;SDS011;28342;42.594;23.414;2022-09-13T10:45:58;2.20;;;1.60;;
42704;SDS011;28342;42.594;23.414;2022-09-13T10:48:29;1.70;;;1.55;;
42704;SDS011;28342;42.594;23.414;2022-09-13T10:56:42;2.92;;;1.50;;
42704;SDS011;28342;42.594;23.414;2022-09-13T10:59:13;4.13;;;1.80;;
42704;SDS011;28342;42.594;23.414;2022-09-13T11:01:51;2.22;;;1.65;;
42704;SDS011;28342;42.594;23.414;2022-09-13T11:10:19;3.13;;;1.63;;
42704;SDS011;28342;42.594;23.414;2022-09-13T11:15:49;2.33;;;1.27;;
42704;SDS011;28342;42.594;23.414;2022-09-13T11:18:28;3.42;;;1.73;;
42704;SDS011;28342;42.594;23.414;2022-09-13T11:29:53;2.33;;;1.63;;
42704;SDS011;28342;42.594;23.414;2022-09-13T11:32:13;2.33;;;1.92;;
42704;SDS011;28342;42.594;23.414;2022-09-13T11:34:48;1.85;;;1.67;;
42704;SDS011;28342;42.594;23.414;2022-09-13T11:40:33;2.20;;;1.90;;
42704;SDS011;28342;42.594;23.414;2022-09-13T11:48:45;2.45;;;1.83;;
42704;SDS011;28342;42.594;23.414;2022-09-13T11:56:43;3.95;;;1.70;;
42704;SDS011;28342;42.594;23.414;2022-09-13T12:02:12;3.38;;;1.50;;
42704;SDS011;28342;42.594;23.414;2022-09-13T12:05:02;5.18;;;1.63;;
42704;SDS011;28342;42.594;23.414;2022-09-13T12:10:42;1.70;;;1.58;;
42704;SDS011;28342;42.594;23.414;2022-09-13T12:13:12;2.00;;;1.63;;
42704;SDS011;28342;42.594;23.414;2022-09-13T12:15:42;6.78;;;1.67;;
42704;SDS011;28342;42.594;23.414;2022-09-13T12:20:38;3.67;;;1.70;;
42704;SDS011;28342;42.594;23.414;2022-09-13T12:23:45;2.45;;;1.60;;
42704;SDS011;28342;42.594;23.414;2022-09-13T12:26:19;1.85;;;1.60;;
42704;SDS011;28342;42.594;23.414;2022-09-13T12:28:53;2.80;;;1.60;;
42704;SDS011;28342;42.594;23.414;2022-09-13T12:31:27;1.70;;;1.60;;
42704;SDS011;28342;42.594;23.414;2022-09-13T12:33:55;1.73;;;1.63;;
42704;SDS011;28342;42.594;23.414;2022-09-13T12:36:44;2.85;;;1.80;;
42704;SDS011;28342;42.594;23.414;2022-09-13T12:47:52;2.47;;;1.92;;
42704;SDS011;28342;42.594;23.414;2022-09-13T13:01:05;2.35;;;1.35;;
42704;SDS011;28342;42.594;23.414;2022-09-13T13:03:33;3.15;;;1.55;;
42704;SDS011;28342;42.594;23.414;2022-09-13T13:08:49;1.55;;;1.45;;
42704;SDS011;28342;42.594;23.414;2022-09-13T13:11:18;3.00;;;1.40;;
42704;SDS011;28342;42.594;23.414;2022-09-13T13:16:36;4.15;;;1.60;;
42704;SDS011;28342;42.594;23.414;2022-09-13T13:19:27;2.63;;;1.58;;
42704;SDS011;28342;42.594;23.414;2022-09-13T13:28:01;2.47;;;1.73;;
42704;SDS011;28342;42.594;23.414;2022-09-13T13:33:17;2.85;;;1.70;;
42704;SDS011;28342;42.594;23.414;2022-09-13T13:35:45;2.47;;;1.50;;
42704;SDS011;28342;42.594;23.414;2022-09-13T13:40:52;3.65;;;1.50;;
42704;SDS011;28342;42.594;23.414;2022-09-13T13:43:32;2.35;;;1.48;;
42704;SDS011;28342;42.594;23.414;2022-09-13T13:46:22;3.03;;;1.58;;
42704;SDS011;28342;42.594;23.414;2022-09-13T13:48:46;3.15;;;1.50;;
42704;SDS011;28342;42.594;23.414;2022-09-13T13:53:44;4.85;;;1.30;;
42704;SDS011;28342;42.594;23.414;2022-09-13T13:58:49;4.88;;;1.70;;
42704;SDS011;28342;42.594;23.414;2022-09-13T14:01:24;6.22;;;1.90;;
42704;SDS011;28342;42.594;23.414;2022-09-13T14:15:28;2.47;;;1.70;;
42704;SDS011;28342;42.594;23.414;2022-09-13T14:18:24;2.97;;;2.20;;
42704;SDS011;28342;42.594;23.414;2022-09-13T14:20:56;4.93;;;2.30;;
42704;SDS011;28342;42.594;23.414;2022-09-13T14:23:48;7.32;;;2.30;;
42704;SDS011;28342;42.594;23.414;2022-09-13T14:26:14;4.60;;;2.10;;
42704;SDS011;28342;42.594;23.414;2022-09-13T14:28:40;3.65;;;2.38;;
42704;SDS011;28342;42.594;23.414;2022-09-13T14:31:05;3.20;;;2.05;;
42704;SDS011;28342;42.594;23.414;2022-09-13T14:33:32;4.60;;;2.65;;
42704;SDS011;28342;42.594;23.414;2022-09-13T14:36:04;1.98;;;1.73;;
42704;SDS011;28342;42.594;23.414;2022-09-13T14:38:33;2.92;;;1.88;;
42704;SDS011;28342;42.594;23.414;2022-09-13T14:41:02;4.43;;;2.10;;
42704;SDS011;28342;42.594;23.414;2022-09-13T14:43:37;5.05;;;2.00;;
42704;SDS011;28342;42.594;23.414;2022-09-13T14:46:16;2.63;;;1.75;;
42704;SDS011;28342;42.594;23.414;2022-09-13T14:49:02;3.15;;;1.98;;
42704;SDS011;28342;42.594;23.414;2022-09-13T14:51:44;2.00;;;1.80;;
42704;SDS011;28342;42.594;23.414;2022-09-13T14:54:22;2.03;;;1.80;;
42704;SDS011;28342;42.594;23.414;2022-09-13T14:59:25;1.90;;;1.75;;
42704;SDS011;28342;42.594;23.414;2022-09-13T15:01:56;1.90;;;1.80;;
42704;SDS011;28342;42.594;23.414;2022-09-13T15:04:22;2.85;;;2.22;;
42704;SDS011;28342;42.594;23.414;2022-09-13T15:07:04;3.42;;;1.75;;
42704;SDS011;28342;42.594;23.414;2022-09-13T15:09:32;8.07;;;4.33;;
42704;SDS011;28342;42.594;23.414;2022-09-13T15:11:59;4.03;;;2.10;;
42704;SDS011;28342;42.594;23.414;2022-09-13T15:14:30;2.92;;;2.63;;
42704;SDS011;28342;42.594;23.414;2022-09-13T15:16:59;6.95;;;1.70;;
42704;SDS011;28342;42.594;23.414;2022-09-13T15:22:20;3.58;;;1.83;;
42704;SDS011;28342;42.594;23.414;2022-09-13T15:24:49;5.65;;;1.90;;
42704;SDS011;28342;42.594;23.414;2022-09-13T15:27:21;2.13;;;1.80;;
42704;SDS011;28342;42.594;23.414;2022-09-13T15:33:05;3.45;;;2.10;;
42704;SDS011;28342;42.594;23.414;2022-09-13T15:35:41;2.15;;;1.98;;
42704;SDS011;28342;42.594;23.414;2022-09-13T15:38:28;4.10;;;1.80;;
42704;SDS011;28342;42.594;23.414;2022-09-13T15:40:57;2.92;;;2.35;;
42704;SDS011;28342;42.594;23.414;2022-09-13T15:43:38;4.50;;;1.90;;
42704;SDS011;28342;42.594;23.414;2022-09-13T15:46:08;2.55;;;1.80;;
42704;SDS011;28342;42.594;23.414;2022-09-13T15:48:39;3.13;;;2.10;;
42704;SDS011;28342;42.594;23.414;2022-09-13T15:51:14;2.65;;;1.95;;
42704;SDS011;28342;42.594;23.414;2022-09-13T15:53:41;3.05;;;2.35;;
42704;SDS011;28342;42.594;23.414;2022-09-13T15:56:11;3.33;;;2.25;;
42704;SDS011;28342;42.594;23.414;2022-09-13T15:58:40;3.22;;;2.13;;
42704;SDS011;28342;42.594;23.414;2022-09-13T16:01:05;7.40;;;3.35;;
42704;SDS011;28342;42.594;23.414;2022-09-13T16:03:31;4.43;;;3.10;;
42704;SDS011;28342;42.594;23.414;2022-09-13T16:05:57;3.50;;;2.92;;
42704;SDS011;28342;42.594;23.414;2022-09-13T16:08:22;3.80;;;3.13;;
42704;SDS011;28342;42.594;23.414;2022-09-13T16:10:48;6.50;;;3.85;;
42704;SDS011;28342;42.594;23.414;2022-09-13T16:13:14;5.28;;;3.20;;
42704;SDS011;28342;42.594;23.414;2022-09-13T16:15:40;15.15;;;8.00;;
42704;SDS011;28342;42.594;23.414;2022-09-13T16:18:05;4.13;;;3.58;;
42704;SDS011;28342;42.594;23.414;2022-09-13T16:20:30;6.40;;;3.30;;
42704;SDS011;28342;42.594;23.414;2022-09-13T16:22:56;4.32;;;3.00;;
42704;SDS011;28342;42.594;23.414;2022-09-13T16:25:21;7.70;;;3.05;;
42704;SDS011;28342;42.594;23.414;2022-09-13T16:27:47;3.30;;;2.60;;
42704;SDS011;28342;42.594;23.414;2022-09-13T16:30:13;4.80;;;2.92;;
42704;SDS011;28342;42.594;23.414;2022-09-13T16:32:40;4.15;;;2.92;;
42704;SDS011;28342;42.594;23.414;2022-09-13T16:35:06;5.88;;;2.30;;
42704;SDS011;28342;42.594;23.414;2022-09-13T16:37:32;3.17;;;2.75;;
42704;SDS011;28342;42.594;23.414;2022-09-13T16:39:58;3.53;;;2.45;;
42704;SDS011;28342;42.594;23.414;2022-09-13T16:42:24;3.70;;;2.92;;
42704;SDS011;28342;42.594;23.414;2022-09-13T16:44:49;10.13;;;3.03;;
42704;SDS011;28342;42.594;23.414;2022-09-13T16:47:14;5.93;;;2.55;;
42704;SDS011;28342;42.594;23.414;2022-09-13T16:49:40;3.00;;;2.70;;
42704;SDS011;28342;42.594;23.414;2022-09-13T16:52:05;2.72;;;2.45;;
42704;SDS011;28342;42.594;23.414;2022-09-13T16:54:31;5.07;;;2.53;;
42704;SDS011;28342;42.594;23.414;2022-09-13T16:56:58;3.88;;;2.42;;
42704;SDS011;28342;42.594;23.414;2022-09-13T16:59:24;4.28;;;2.70;;
42704;SDS011;28342;42.594;23.414;2022-09-13T17:01:50;5.55;;;3.00;;
42704;SDS011;28342;42.594;23.414;2022-09-13T17:04:15;4.05;;;2.60;;
42704;SDS011;28342;42.594;23.414;2022-09-13T17:06:42;5.55;;;3.30;;
42704;SDS011;28342;42.594;23.414;2022-09-13T17:09:08;8.70;;;2.90;;
42704;SDS011;28342;42.594;23.414;2022-09-13T17:11:36;5.38;;;3.30;;
42704;SDS011;28342;42.594;23.414;2022-09-13T17:14:04;6.53;;;3.38;;
42704;SDS011;28342;42.594;23.414;2022-09-13T17:16:34;3.78;;;3.40;;
42704;SDS011;28342;42.594;23.414;2022-09-13T17:19:01;5.32;;;3.83;;
42704;SDS011;28342;42.594;23.414;2022-09-13T17:21:29;6.55;;;4.53;;
42704;SDS011;28342;42.594;23.414;2022-09-13T17:23:57;7.57;;;5.20;;
42704;SDS011;28342;42.594;23.414;2022-09-13T17:26:22;18.45;;;12.82;;
42704;SDS011;28342;42.594;23.414;2022-09-13T17:28:48;48.70;;;30.60;;
42704;SDS011;28342;42.594;23.414;2022-09-13T17:31:13;90.03;;;54.17;;
42704;SDS011;28342;42.594;23.414;2022-09-13T17:33:39;99.72;;;56.65;;
42704;SDS011;28342;42.594;23.414;2022-09-13T17:36:05;156.05;;;86.30;;
42704;SDS011;28342;42.594;23.414;2022-09-13T17:38:34;46.28;;;25.77;;
42704;SDS011;28342;42.594;23.414;2022-09-13T17:41:01;10.02;;;5.68;;
42704;SDS011;28342;42.594;23.414;2022-09-13T17:43:33;7.60;;;4.35;;
42704;SDS011;28342;42.594;23.414;2022-09-13T17:46:07;8.10;;;4.15;;
42704;SDS011;28342;42.594;23.414;2022-09-13T17:48:35;5.68;;;4.82;;
42704;SDS011;28342;42.594;23.414;2022-09-13T17:51:09;7.00;;;4.35;;
42704;SDS011;28342;42.594;23.414;2022-09-13T17:53:41;6.63;;;4.50;;
42704;SDS011;28342;42.594;23.414;2022-09-13T17:56:15;5.28;;;3.92;;